createdAt,value
2022-08-12T00:03:10.033Z,23.30
2022-08-12T00:08:36.854Z,23.30
2022-08-12T00:13:52.949Z,23.30
2022-08-12T00:19:08.554Z,23.20
2022-08-12T00:24:26.852Z,23.10
2022-08-12T00:29:44.680Z,23.10
2022-08-12T00:35:08.727Z,22.90
2022-08-12T00:40:29.211Z,22.90
2022-08-12T00:45:47.773Z,22.80
2022-08-12T00:50:48.785Z,22.80
2022-08-12T00:55:48.529Z,22.70
2022-08-12T01:00:47.046Z,22.70
2022-08-12T01:06:05.270Z,22.60
2022-08-12T01:11:22.789Z,22.50
2022-08-12T01:16:22.757Z,22.40
2022-08-12T01:21:42.782Z,22.40
2022-08-12T01:26:43.648Z,22.30
2022-08-12T01:31:44.426Z,22.20
2022-08-12T01:36:46.881Z,22.20
2022-08-12T01:41:53.727Z,22.20
2022-08-12T01:47:05.741Z,22.20
2022-08-12T01:52:21.733Z,22.20
2022-08-12T01:57:58.328Z,22.10
2022-08-12T02:03:09.912Z,22.10
2022-08-12T02:08:36.129Z,22.00
2022-08-12T02:14:00.119Z,21.90
2022-08-12T02:19:21.906Z,21.90
2022-08-12T02:24:23.172Z,21.80
2022-08-12T02:29:23.660Z,21.80
2022-08-12T02:34:23.088Z,21.70
2022-08-12T02:39:25.160Z,21.60
2022-08-12T02:44:27.318Z,21.60
2022-08-12T02:49:31.464Z,21.60
2022-08-12T02:54:29.748Z,21.50
2022-08-12T02:59:32.350Z,21.50
2022-08-12T03:04:39.034Z,21.40
2022-08-12T03:10:03.673Z,21.40
2022-08-12T03:15:09.940Z,21.30
2022-08-12T03:20:11.172Z,21.20
2022-08-12T03:25:17.258Z,21.20
2022-08-12T03:30:17.882Z,21.20
2022-08-12T03:35:40.623Z,21.10
2022-08-12T03:41:15.680Z,21.10
2022-08-12T03:46:38.982Z,21.10
2022-08-12T03:51:54.916Z,21.00
2022-08-12T03:57:10.824Z,20.90
2022-08-12T04:02:15.053Z,20.90
2022-08-12T04:07:14.758Z,20.90
2022-08-12T04:12:32.748Z,20.90
2022-08-12T04:18:06.466Z,20.90
2022-08-12T04:22:59.888Z,20.80
2022-08-12T04:27:58.158Z,20.80
2022-08-12T04:33:13.714Z,20.70
2022-08-12T04:38:13.698Z,20.70
2022-08-12T04:44:00.020Z,20.60
2022-08-12T04:48:31.497Z,20.60
2022-08-12T04:53:31.304Z,20.50
2022-08-12T04:58:30.190Z,20.50
2022-08-12T05:03:28.652Z,20.60
2022-08-12T05:08:46.032Z,20.70
2022-08-12T05:13:46.330Z,20.70
2022-08-12T05:18:45.968Z,20.70
2022-08-12T05:23:47.502Z,20.80
2022-08-12T05:28:46.265Z,20.90
2022-08-12T05:33:45.881Z,21.00
2022-08-12T05:38:57.162Z,21.10
2022-08-12T05:43:58.743Z,21.30
2022-08-12T05:48:58.988Z,21.40
2022-08-12T05:53:58.618Z,21.60
2022-08-12T05:59:00.139Z,21.70
2022-08-12T06:03:59.147Z,21.80
2022-08-12T06:08:57.513Z,22.00
2022-08-12T06:13:58.486Z,22.20
2022-08-12T06:18:58.227Z,22.40
2022-08-12T06:23:56.433Z,22.60
2022-08-12T06:28:55.482Z,22.70
2022-08-12T06:34:59.373Z,22.80
2022-08-12T06:39:15.835Z,23.00
2022-08-12T06:44:20.539Z,23.30
2022-08-12T06:49:19.092Z,23.50
2022-08-12T06:54:30.763Z,23.90
2022-08-12T06:59:30.982Z,24.20
2022-08-12T07:04:37.825Z,24.40
2022-08-12T07:10:01.168Z,24.60
2022-08-12T07:14:58.628Z,24.70
2022-08-12T07:20:03.469Z,25.00
2022-08-12T07:25:37.608Z,25.20
2022-08-12T07:30:42.608Z,25.40
2022-08-12T07:35:43.484Z,25.80
2022-08-12T07:40:43.096Z,26.10
2022-08-12T07:45:41.304Z,26.40
2022-08-12T07:50:39.610Z,26.60
2022-08-12T07:55:37.902Z,26.60
2022-08-12T08:00:40.250Z,26.90
2022-08-12T08:05:39.902Z,27.20
2022-08-12T08:10:38.234Z,27.20
2022-08-12T08:16:01.856Z,27.20
2022-08-12T08:20:57.917Z,27.10
2022-08-12T08:25:56.490Z,27.60
2022-08-12T08:30:56.036Z,27.80
2022-08-12T08:35:54.968Z,28.00
2022-08-12T08:41:10.876Z,28.20
2022-08-12T08:46:10.479Z,28.60
2022-08-12T08:51:08.755Z,29.00
2022-08-12T08:56:08.636Z,29.20
2022-08-12T09:01:07.388Z,29.30
2022-08-12T09:13:22.848Z,29.90
2022-08-12T09:18:30.898Z,30.20
2022-08-12T09:23:58.642Z,30.60
2022-08-12T09:28:53.164Z,30.80
2022-08-12T09:34:29.553Z,31.10
2022-08-12T09:40:01.602Z,31.20
2022-08-12T09:44:48.194Z,31.40
2022-08-12T09:50:07.262Z,31.40
2022-08-12T09:56:06.121Z,31.70
2022-08-12T10:00:48.412Z,32.00
2022-08-12T10:13:07.205Z,32.20
2022-08-12T10:18:08.675Z,32.30
2022-08-12T10:23:06.988Z,32.50
2022-08-12T10:28:27.979Z,32.60
2022-08-12T10:33:31.599Z,32.60
2022-08-12T10:38:35.613Z,32.90
2022-08-12T10:43:56.434Z,33.10
2022-08-12T10:48:58.420Z,33.20
2022-08-12T10:54:05.498Z,33.30
2022-08-12T10:59:10.757Z,33.30
2022-08-12T11:04:23.463Z,33.50
2022-08-12T11:09:51.226Z,33.80
2022-08-12T11:14:52.121Z,34.10
2022-08-12T11:19:52.024Z,34.30
2022-08-12T11:24:51.377Z,34.60
2022-08-12T11:30:01.831Z,34.70
2022-08-12T11:35:08.058Z,34.60
2022-08-12T11:45:13.005Z,34.90
2022-08-12T11:50:32.249Z,35.00
2022-08-12T11:55:33.015Z,35.20
2022-08-12T12:05:50.900Z,35.30
2022-08-12T12:10:50.319Z,35.40
2022-08-12T12:15:49.048Z,35.50
2022-08-12T12:20:48.305Z,35.60
2022-08-12T12:25:59.525Z,35.60
2022-08-12T12:31:15.136Z,35.60
2022-08-12T12:36:30.157Z,35.60
2022-08-12T12:42:41.754Z,35.60
2022-08-12T12:46:49.848Z,35.70
2022-08-12T12:52:17.196Z,35.70
2022-08-12T12:57:07.985Z,35.80
2022-08-12T13:02:08.700Z,35.80
2022-08-12T13:07:07.996Z,35.70
2022-08-12T13:12:10.810Z,35.80
2022-08-12T13:17:11.369Z,35.80
2022-08-12T13:22:23.774Z,35.80
2022-08-12T13:27:28.194Z,35.80
2022-08-12T13:32:41.488Z,35.80
2022-08-12T13:37:43.640Z,35.80
2022-08-12T13:42:45.015Z,35.70
2022-08-12T13:47:55.543Z,35.80
2022-08-12T13:52:54.560Z,35.80
2022-08-12T13:57:54.889Z,35.70
2022-08-12T14:02:58.420Z,35.50
2022-08-12T14:07:59.441Z,35.40
2022-08-12T14:13:01.639Z,35.40
2022-08-12T14:18:10.653Z,35.30
2022-08-12T14:24:01.521Z,35.10
2022-08-12T14:28:34.438Z,34.90
2022-08-12T14:33:44.030Z,34.80
2022-08-12T14:38:46.255Z,34.70
2022-08-12T14:43:59.106Z,34.60
2022-08-12T14:49:42.430Z,34.50
2022-08-12T15:00:00.261Z,33.70
2022-08-12T15:05:03.580Z,33.70
2022-08-12T15:10:02.258Z,33.60
2022-08-12T15:15:03.324Z,33.50
2022-08-12T15:20:11.857Z,33.40
2022-08-12T15:25:23.847Z,33.20
2022-08-12T15:30:24.780Z,33.00
2022-08-12T15:35:23.315Z,32.80
2022-08-12T15:40:30.275Z,32.70
2022-08-12T15:45:31.931Z,32.80
2022-08-12T15:50:30.931Z,32.80
2022-08-12T15:55:33.534Z,32.40
2022-08-12T16:00:35.820Z,32.40
2022-08-12T16:06:17.292Z,32.40
2022-08-12T16:10:54.637Z,32.40
2022-08-12T16:16:02.851Z,32.30
2022-08-12T16:21:01.229Z,32.10
2022-08-12T16:26:05.174Z,32.00
2022-08-12T16:31:06.368Z,31.90
2022-08-12T16:36:11.217Z,32.00
2022-08-12T16:41:09.706Z,31.80
2022-08-12T16:46:31.353Z,31.70
2022-08-12T16:51:31.083Z,31.70
2022-08-12T16:56:37.920Z,31.70
2022-08-12T17:01:37.734Z,31.70
2022-08-12T17:06:36.647Z,31.60
2022-08-12T17:11:39.373Z,31.60
2022-08-12T17:16:43.314Z,31.60
2022-08-12T17:22:01.924Z,31.60
2022-08-12T17:27:02.171Z,31.60
2022-08-12T17:32:11.235Z,31.50
2022-08-12T17:37:09.618Z,31.30
2022-08-12T17:42:35.027Z,31.30
2022-08-12T17:47:36.360Z,31.30
2022-08-12T17:52:36.988Z,31.20
2022-08-12T17:57:41.716Z,31.20
2022-08-12T18:02:42.555Z,31.20
2022-08-12T18:07:41.188Z,31.10
2022-08-12T18:12:47.130Z,31.00
2022-08-12T18:17:49.492Z,30.90
2022-08-12T18:23:01.141Z,30.80
2022-08-12T18:28:16.667Z,30.70
2022-08-12T18:33:23.719Z,30.60
2022-08-12T18:38:24.816Z,30.50
2022-08-12T18:43:23.842Z,30.40
2022-08-12T18:48:24.738Z,30.30
2022-08-12T18:54:07.313Z,30.20
2022-08-12T18:58:59.231Z,30.10
2022-08-12T19:04:00.510Z,30.00
2022-08-12T19:08:59.866Z,29.90
2022-08-12T19:14:15.305Z,29.80
2022-08-12T19:19:18.268Z,29.60
2022-08-12T19:24:34.241Z,29.50
2022-08-12T19:29:39.663Z,29.30
2022-08-12T19:36:07.449Z,29.20
2022-08-12T19:40:31.046Z,29.10
2022-08-12T19:45:43.328Z,28.90
2022-08-12T19:50:50.390Z,28.80
2022-08-12T19:55:53.142Z,28.60
2022-08-12T20:00:53.229Z,28.50
2022-08-12T20:06:05.882Z,28.40
2022-08-12T20:12:09.598Z,28.20
2022-08-12T20:16:50.793Z,28.10
2022-08-12T20:21:45.433Z,28.00
2022-08-12T20:26:44.201Z,27.90
2022-08-12T20:31:44.381Z,27.80
2022-08-12T20:36:45.147Z,27.60
2022-08-12T20:41:44.096Z,27.50
2022-08-12T20:46:42.268Z,27.40
2022-08-12T20:51:54.941Z,27.30
2022-08-12T20:56:55.388Z,27.20
2022-08-12T21:01:53.853Z,27.10
2022-08-12T21:06:58.413Z,26.90
2022-08-12T21:12:27.833Z,26.80
2022-08-12T21:17:33.980Z,26.80
2022-08-12T21:22:46.086Z,26.60
2022-08-12T21:27:59.300Z,26.50
2022-08-12T21:32:59.236Z,26.40
2022-08-12T21:37:57.384Z,26.30
2022-08-12T21:42:56.979Z,26.20
2022-08-12T21:47:56.043Z,26.10
2022-08-12T21:52:54.595Z,26.00
2022-08-12T21:58:02.854Z,25.90
2022-08-12T22:03:30.387Z,25.80
2022-08-12T22:08:39.933Z,25.70
2022-08-12T22:14:07.878Z,25.70
2022-08-12T22:19:06.420Z,25.60
2022-08-12T22:24:05.971Z,25.50
2022-08-12T22:29:21.959Z,25.50
2022-08-12T22:34:29.633Z,25.40
2022-08-12T22:39:31.603Z,25.40
2022-08-12T22:44:54.436Z,25.30
2022-08-12T22:49:59.870Z,25.20
2022-08-12T22:55:04.327Z,25.20
2022-08-12T23:00:10.115Z,25.10
2022-08-12T23:05:57.547Z,25.00
2022-08-12T23:10:45.078Z,24.90
2022-08-12T23:15:47.616Z,24.80
2022-08-12T23:20:54.046Z,24.70
2022-08-12T23:25:55.541Z,24.70
2022-08-12T23:31:04.597Z,24.60
2022-08-12T23:36:06.799Z,24.50
2022-08-12T23:41:06.683Z,24.50
2022-08-12T23:46:06.328Z,24.40
2022-08-12T23:51:23.139Z,24.30
2022-08-12T23:56:22.665Z,24.30
